sensor_id;sensor_type;location;lat;lon;timestamp;P1;durP1;ratioP1;P2;durP2;ratioP2
35757;SDS011;21879;50.110;18.900;2023-04-24T00:04:46;11.90;;;8.50;;
35757;SDS011;21879;50.110;18.900;2023-04-24T00:15:12;13.40;;;9.90;;
35757;SDS011;21879;50.110;18.900;2023-04-24T00:25:37;12.80;;;9.40;;
35757;SDS011;21879;50.110;18.900;2023-04-24T00:36:04;13.30;;;9.40;;
35757;SDS011;21879;50.110;18.900;2023-04-24T00:46:31;11.50;;;9.30;;
35757;SDS011;21879;50.110;18.900;2023-04-24T00:56:57;13.40;;;9.20;;
35757;SDS011;21879;50.110;18.900;2023-04-24T01:07:24;12.20;;;9.70;;
35757;SDS011;21879;50.110;18.900;2023-04-24T01:17:50;13.70;;;10.00;;
35757;SDS011;21879;50.110;18.900;2023-04-24T01:28:16;16.90;;;11.30;;
35757;SDS011;21879;50.110;18.900;2023-04-24T01:38:42;14.60;;;10.30;;
35757;SDS011;21879;50.110;18.900;2023-04-24T01:49:09;16.90;;;13.00;;
35757;SDS011;21879;50.110;18.900;2023-04-24T01:59:35;21.20;;;14.60;;
35757;SDS011;21879;50.110;18.900;2023-04-24T02:10:01;23.80;;;17.70;;
35757;SDS011;21879;50.110;18.900;2023-04-24T02:20:28;28.00;;;20.90;;
35757;SDS011;21879;50.110;18.900;2023-04-24T02:30:56;22.60;;;17.50;;
35757;SDS011;21879;50.110;18.900;2023-04-24T02:41:31;24.80;;;20.90;;
35757;SDS011;21879;50.110;18.900;2023-04-24T02:51:57;19.40;;;14.90;;
35757;SDS011;21879;50.110;18.900;2023-04-24T03:02:23;27.40;;;19.10;;
35757;SDS011;21879;50.110;18.900;2023-04-24T03:12:50;22.50;;;19.40;;
35757;SDS011;21879;50.110;18.900;2023-04-24T03:23:17;23.20;;;17.10;;
35757;SDS011;21879;50.110;18.900;2023-04-24T03:33:43;18.50;;;15.20;;
35757;SDS011;21879;50.110;18.900;2023-04-24T03:44:09;19.80;;;14.20;;
35757;SDS011;21879;50.110;18.900;2023-04-24T03:54:35;19.20;;;14.70;;
35757;SDS011;21879;50.110;18.900;2023-04-24T04:05:00;19.40;;;14.00;;
35757;SDS011;21879;50.110;18.900;2023-04-24T04:15:27;17.40;;;13.00;;
35757;SDS011;21879;50.110;18.900;2023-04-24T04:25:53;19.90;;;14.50;;
35757;SDS011;21879;50.110;18.900;2023-04-24T04:36:19;16.10;;;13.10;;
35757;SDS011;21879;50.110;18.900;2023-04-24T04:46:46;15.90;;;12.70;;
35757;SDS011;21879;50.110;18.900;2023-04-24T04:57:13;18.70;;;14.70;;
35757;SDS011;21879;50.110;18.900;2023-04-24T05:07:39;19.30;;;14.90;;
35757;SDS011;21879;50.110;18.900;2023-04-24T05:18:04;17.60;;;14.40;;
35757;SDS011;21879;50.110;18.900;2023-04-24T05:28:30;14.00;;;12.00;;
35757;SDS011;21879;50.110;18.900;2023-04-24T05:38:56;15.60;;;12.50;;
35757;SDS011;21879;50.110;18.900;2023-04-24T05:49:22;12.60;;;9.40;;
35757;SDS011;21879;50.110;18.900;2023-04-24T05:59:48;11.70;;;8.60;;
35757;SDS011;21879;50.110;18.900;2023-04-24T06:10:14;12.10;;;8.00;;
35757;SDS011;21879;50.110;18.900;2023-04-24T06:20:40;11.40;;;7.10;;
35757;SDS011;21879;50.110;18.900;2023-04-24T06:31:06;11.00;;;8.10;;
35757;SDS011;21879;50.110;18.900;2023-04-24T06:41:32;12.00;;;8.00;;
35757;SDS011;21879;50.110;18.900;2023-04-24T06:51:58;8.90;;;7.10;;
35757;SDS011;21879;50.110;18.900;2023-04-24T07:02:23;7.70;;;6.70;;
35757;SDS011;21879;50.110;18.900;2023-04-24T07:12:50;9.00;;;6.40;;
35757;SDS011;21879;50.110;18.900;2023-04-24T07:23:17;7.40;;;6.10;;
35757;SDS011;21879;50.110;18.900;2023-04-24T07:33:43;11.10;;;5.70;;
35757;SDS011;21879;50.110;18.900;2023-04-24T07:44:09;10.00;;;6.10;;
35757;SDS011;21879;50.110;18.900;2023-04-24T07:54:35;8.10;;;6.20;;
35757;SDS011;21879;50.110;18.900;2023-04-24T08:05:01;6.90;;;5.50;;
35757;SDS011;21879;50.110;18.900;2023-04-24T08:15:29;7.60;;;5.40;;
35757;SDS011;21879;50.110;18.900;2023-04-24T08:25:54;7.20;;;5.10;;
35757;SDS011;21879;50.110;18.900;2023-04-24T08:36:21;8.90;;;5.80;;
35757;SDS011;21879;50.110;18.900;2023-04-24T08:47:05;6.60;;;5.70;;
35757;SDS011;21879;50.110;18.900;2023-04-24T08:57:33;6.20;;;5.20;;
35757;SDS011;21879;50.110;18.900;2023-04-24T09:08:02;7.60;;;4.90;;
35757;SDS011;21879;50.110;18.900;2023-04-24T09:18:30;6.10;;;4.90;;
35757;SDS011;21879;50.110;18.900;2023-04-24T09:28:58;6.00;;;4.80;;
35757;SDS011;21879;50.110;18.900;2023-04-24T09:39:24;6.60;;;4.90;;
35757;SDS011;21879;50.110;18.900;2023-04-24T09:49:50;7.70;;;5.10;;
35757;SDS011;21879;50.110;18.900;2023-04-24T10:00:23;7.00;;;6.10;;
35757;SDS011;21879;50.110;18.900;2023-04-24T10:10:51;7.80;;;5.60;;
35757;SDS011;21879;50.110;18.900;2023-04-24T10:21:18;6.10;;;5.40;;
35757;SDS011;21879;50.110;18.900;2023-04-24T10:31:44;7.10;;;5.20;;
35757;SDS011;21879;50.110;18.900;2023-04-24T10:42:15;7.10;;;6.00;;
35757;SDS011;21879;50.110;18.900;2023-04-24T10:52:47;11.50;;;8.40;;
35757;SDS011;21879;50.110;18.900;2023-04-24T11:03:25;9.20;;;7.00;;
35757;SDS011;21879;50.110;18.900;2023-04-24T11:14:03;8.50;;;6.00;;
35757;SDS011;21879;50.110;18.900;2023-04-24T11:24:31;10.10;;;6.30;;
35757;SDS011;21879;50.110;18.900;2023-04-24T11:35:04;7.40;;;6.00;;
35757;SDS011;21879;50.110;18.900;2023-04-24T11:45:32;7.40;;;6.30;;
35757;SDS011;21879;50.110;18.900;2023-04-24T11:55:58;8.40;;;6.20;;
35757;SDS011;21879;50.110;18.900;2023-04-24T12:06:28;7.20;;;6.30;;
35757;SDS011;21879;50.110;18.900;2023-04-24T12:16:54;6.90;;;5.60;;
35757;SDS011;21879;50.110;18.900;2023-04-24T12:27:20;9.00;;;5.30;;
35757;SDS011;21879;50.110;18.900;2023-04-24T12:37:46;8.00;;;6.10;;
35757;SDS011;21879;50.110;18.900;2023-04-24T12:48:13;7.00;;;5.30;;
35757;SDS011;21879;50.110;18.900;2023-04-24T12:58:39;6.00;;;5.20;;
35757;SDS011;21879;50.110;18.900;2023-04-24T13:09:05;8.10;;;6.70;;
35757;SDS011;21879;50.110;18.900;2023-04-24T13:19:36;8.60;;;6.90;;
35757;SDS011;21879;50.110;18.900;2023-04-24T13:30:03;8.00;;;6.80;;
35757;SDS011;21879;50.110;18.900;2023-04-24T13:40:30;8.40;;;7.30;;
35757;SDS011;21879;50.110;18.900;2023-04-24T13:50:55;10.40;;;8.70;;
35757;SDS011;21879;50.110;18.900;2023-04-24T14:01:21;9.40;;;7.10;;
35757;SDS011;21879;50.110;18.900;2023-04-24T14:11:48;9.90;;;7.40;;
35757;SDS011;21879;50.110;18.900;2023-04-24T14:22:14;7.90;;;5.20;;
35757;SDS011;21879;50.110;18.900;2023-04-24T14:32:40;6.20;;;4.10;;
35757;SDS011;21879;50.110;18.900;2023-04-24T14:43:06;6.00;;;4.90;;
35757;SDS011;21879;50.110;18.900;2023-04-24T14:53:33;6.20;;;4.90;;
35757;SDS011;21879;50.110;18.900;2023-04-24T15:03:59;4.10;;;3.70;;
35757;SDS011;21879;50.110;18.900;2023-04-24T15:14:25;5.10;;;3.90;;
35757;SDS011;21879;50.110;18.900;2023-04-24T15:24:51;6.40;;;4.90;;
35757;SDS011;21879;50.110;18.900;2023-04-24T15:35:17;5.50;;;4.60;;
35757;SDS011;21879;50.110;18.900;2023-04-24T15:45:43;7.80;;;4.50;;
35757;SDS011;21879;50.110;18.900;2023-04-24T15:56:09;7.10;;;5.70;;
35757;SDS011;21879;50.110;18.900;2023-04-24T16:06:35;9.40;;;7.00;;
35757;SDS011;21879;50.110;18.900;2023-04-24T16:17:01;7.90;;;6.50;;
35757;SDS011;21879;50.110;18.900;2023-04-24T16:27:27;15.70;;;11.70;;
35757;SDS011;21879;50.110;18.900;2023-04-24T16:37:53;9.30;;;8.30;;
35757;SDS011;21879;50.110;18.900;2023-04-24T16:48:19;9.70;;;8.00;;
35757;SDS011;21879;50.110;18.900;2023-04-24T16:58:44;12.60;;;8.60;;
35757;SDS011;21879;50.110;18.900;2023-04-24T17:09:11;12.30;;;10.00;;
35757;SDS011;21879;50.110;18.900;2023-04-24T17:19:38;14.50;;;9.20;;
35757;SDS011;21879;50.110;18.900;2023-04-24T17:30:05;13.80;;;9.40;;
35757;SDS011;21879;50.110;18.900;2023-04-24T17:40:33;14.30;;;8.70;;
35757;SDS011;21879;50.110;18.900;2023-04-24T17:51:01;12.10;;;9.20;;
35757;SDS011;21879;50.110;18.900;2023-04-24T18:01:27;10.20;;;8.40;;
35757;SDS011;21879;50.110;18.900;2023-04-24T18:11:52;14.10;;;10.80;;
35757;SDS011;21879;50.110;18.900;2023-04-24T18:22:19;19.00;;;16.30;;
35757;SDS011;21879;50.110;18.900;2023-04-24T18:32:45;23.00;;;18.70;;
35757;SDS011;21879;50.110;18.900;2023-04-24T18:43:11;19.70;;;15.80;;
35757;SDS011;21879;50.110;18.900;2023-04-24T18:53:36;22.40;;;19.20;;
35757;SDS011;21879;50.110;18.900;2023-04-24T19:04:03;23.00;;;18.80;;
35757;SDS011;21879;50.110;18.900;2023-04-24T19:14:29;31.10;;;26.60;;
35757;SDS011;21879;50.110;18.900;2023-04-24T19:24:55;26.80;;;22.80;;
35757;SDS011;21879;50.110;18.900;2023-04-24T19:35:21;25.20;;;21.20;;
35757;SDS011;21879;50.110;18.900;2023-04-24T19:45:48;30.60;;;25.30;;
35757;SDS011;21879;50.110;18.900;2023-04-24T19:56:15;30.40;;;25.10;;
35757;SDS011;21879;50.110;18.900;2023-04-24T20:06:41;31.80;;;26.60;;
35757;SDS011;21879;50.110;18.900;2023-04-24T20:17:07;32.20;;;26.40;;
35757;SDS011;21879;50.110;18.900;2023-04-24T20:27:33;36.10;;;26.20;;
35757;SDS011;21879;50.110;18.900;2023-04-24T20:37:59;28.90;;;22.80;;
35757;SDS011;21879;50.110;18.900;2023-04-24T20:48:25;22.60;;;18.80;;
35757;SDS011;21879;50.110;18.900;2023-04-24T20:58:51;23.90;;;18.50;;
35757;SDS011;21879;50.110;18.900;2023-04-24T21:09:19;23.60;;;18.50;;
35757;SDS011;21879;50.110;18.900;2023-04-24T21:19:44;14.00;;;9.60;;
35757;SDS011;21879;50.110;18.900;2023-04-24T21:30:11;8.80;;;6.50;;
35757;SDS011;21879;50.110;18.900;2023-04-24T21:40:37;6.90;;;5.40;;
35757;SDS011;21879;50.110;18.900;2023-04-24T21:51:03;7.40;;;4.70;;
35757;SDS011;21879;50.110;18.900;2023-04-24T22:01:29;5.90;;;4.20;;
35757;SDS011;21879;50.110;18.900;2023-04-24T22:11:55;6.90;;;5.10;;
35757;SDS011;21879;50.110;18.900;2023-04-24T22:22:21;6.90;;;5.10;;
35757;SDS011;21879;50.110;18.900;2023-04-24T22:32:47;7.90;;;5.60;;
35757;SDS011;21879;50.110;18.900;2023-04-24T22:43:13;10.40;;;7.60;;
35757;SDS011;21879;50.110;18.900;2023-04-24T22:53:40;11.50;;;8.00;;
35757;SDS011;21879;50.110;18.900;2023-04-24T23:04:06;10.70;;;8.20;;
35757;SDS011;21879;50.110;18.900;2023-04-24T23:14:32;9.90;;;6.00;;
35757;SDS011;21879;50.110;18.900;2023-04-24T23:24:58;10.30;;;7.40;;
35757;SDS011;21879;50.110;18.900;2023-04-24T23:35:24;9.30;;;6.80;;
35757;SDS011;21879;50.110;18.900;2023-04-24T23:45:49;12.30;;;9.10;;
35757;SDS011;21879;50.110;18.900;2023-04-24T23:56:16;13.20;;;10.20;;
